»·PEaware :: N172TT KVNY-KBFL

N172TT :: KVNY-KBFL

FLIGHT INFORMATION

Flight Status: Arrived
Operator: Privately registered:
United States
More flights under this callsign
Pilot: Thomas T. (19955)
Aircraft: CESSNA 172 SKYHAWK
(C172)
More flights by this aircraft type
Origin: KVNY Van Nuys
United States
Destination: KBFL Meadows
United States
More flights between these airports :: More routes between these airports
Route: +CANOG2 GMN AMONT KBFL
File this flight plan on PilotEdge
Remarks: IFR TRAINING FLIGHT
Altitude:
(Current/Filed)
11,000ft
Speed:
(Current/Filed)
118kts
Departed: 07-Oct-18 07:28 AM
Arrived: 07-Oct-18 08:42 AM
Distance/Time
Traveled:
79nm/1:14
Distance/Time
To Go:
Arrived

Flight Plot

Page will automatically refresh every two minutes.

Flight plan parsing failed; only flown route is shown


Map Options




Map Legend


Flown Route
Filed Route
Departure Airport
Arrival Airport
Navaid (VOR, NDB)
Fix

Horizontal Profiles

Position Reports

Time Latitude Longitude Heading Altitude Ground
Speed
07-Oct-18 07:14 34.219336 -118.494312 175 806ft 0kts
07-Oct-18 07:15 34.219336 -118.494312 175 806ft 0kts
07-Oct-18 07:16 34.219336 -118.494312 175 806ft 0kts
07-Oct-18 07:17 34.219336 -118.494312 175 806ft 0kts
07-Oct-18 07:18 34.219336 -118.494312 175 806ft 0kts
07-Oct-18 07:19 34.219336 -118.494312 175 806ft 0kts
07-Oct-18 07:20 34.219336 -118.494312 175 806ft 0kts
07-Oct-18 07:21 34.219336 -118.494312 175 806ft 0kts
07-Oct-18 07:22 34.217329 -118.493891 114 806ft 13kts
07-Oct-18 07:23 34.218841 -118.492470 347 806ft 13kts
07-Oct-18 07:24 34.219553 -118.492311 153 806ft 0kts
07-Oct-18 07:25 34.219553 -118.492311 153 806ft 0kts
07-Oct-18 07:26 34.219553 -118.492311 153 806ft 0kts
07-Oct-18 07:27 34.219553 -118.492311 153 806ft 0kts
07-Oct-18 07:28 34.219553 -118.492311 153 806ft 0kts
07-Oct-18 07:29 34.218905 -118.491745 123 806ft 14kts
07-Oct-18 07:30 34.212309 -118.490644 176 904ft 74kts
07-Oct-18 07:31 34.186600 -118.485573 170 1417ft 102kts
07-Oct-18 07:32 34.164429 -118.504741 225 1908ft 101kts
07-Oct-18 07:33 34.146790 -118.530044 270 2401ft 99kts
07-Oct-18 07:34 34.158337 -118.559185 279 2898ft 97kts
07-Oct-18 07:35 34.141898 -118.584038 226 3402ft 98kts
07-Oct-18 07:36 34.122680 -118.607149 226 3904ft 97kts
07-Oct-18 07:37 34.103455 -118.630007 231 4406ft 96kts
07-Oct-18 07:38 34.113994 -118.650036 343 4893ft 89kts
07-Oct-18 07:39 34.139469 -118.658293 346 5391ft 101kts
07-Oct-18 07:40 34.165742 -118.666329 346 5889ft 91kts
07-Oct-18 07:41 34.189387 -118.673964 344 6389ft 85kts
07-Oct-18 07:42 34.212374 -118.681494 345 6895ft 91kts
07-Oct-18 07:43 34.237834 -118.689323 345 7402ft 96kts
07-Oct-18 07:44 34.263625 -118.697188 345 7903ft 95kts
07-Oct-18 07:45 34.289151 -118.704979 345 8406ft 94kts
07-Oct-18 07:46 34.314085 -118.712596 345 8908ft 91kts
07-Oct-18 07:47 34.338478 -118.720054 344 9411ft 89kts
07-Oct-18 07:48 34.362165 -118.727302 344 9912ft 87kts
07-Oct-18 07:49 34.385222 -118.734363 344 10415ft 84kts
07-Oct-18 07:50 34.407458 -118.741185 344 10916ft 81kts
07-Oct-18 07:51 34.428844 -118.747757 344 11416ft 78kts
07-Oct-18 07:52 34.449570 -118.754132 343 11917ft 75kts
07-Oct-18 07:53 34.473367 -118.761344 344 11976ft 96kts
07-Oct-18 07:54 34.499582 -118.770176 343 11979ft 99kts
07-Oct-18 07:55 34.526475 -118.778690 344 11981ft 100kts
07-Oct-18 07:56 34.553471 -118.786908 344 11981ft 100kts
07-Oct-18 07:57 34.580430 -118.795082 344 11981ft 100kts
07-Oct-18 07:58 34.606663 -118.803049 344 11977ft 94kts
07-Oct-18 07:59 34.631578 -118.811118 343 11974ft 92kts
07-Oct-18 08:00 34.656178 -118.819181 344 11971ft 91kts
07-Oct-18 08:01 34.680526 -118.826825 344 11968ft 90kts
07-Oct-18 08:02 34.704701 -118.834495 341 11963ft 89kts
07-Oct-18 08:03 34.728378 -118.842183 339 11956ft 88kts
07-Oct-18 08:04 34.751985 -118.850692 344 11948ft 88kts
07-Oct-18 08:05 34.775742 -118.857301 346 11940ft 87kts
07-Oct-18 08:06 34.799362 -118.863481 344 11931ft 86kts
07-Oct-18 08:07 34.822623 -118.870620 343 11920ft 86kts
07-Oct-18 08:08 34.845731 -118.877796 343 11909ft 85kts
07-Oct-18 08:09 34.868659 -118.884943 343 11897ft 85kts
07-Oct-18 08:10 34.890327 -118.891718 343 12003ft 76kts
07-Oct-18 08:11 34.911694 -118.898424 344 11990ft 81kts
07-Oct-18 08:12 34.933600 -118.905277 344 11973ft 82kts
07-Oct-18 08:13 34.956128 -118.912238 346 11938ft 87kts
07-Oct-18 08:14 34.982343 -118.919105 346 11328ft 101kts
07-Oct-18 08:15 35.008811 -118.915964 39 10697ft 117kts
07-Oct-18 08:16 35.033539 -118.927027 321 10077ft 107kts
07-Oct-18 08:17 35.055746 -118.950965 319 9462ft 107kts
07-Oct-18 08:18 35.077418 -118.975564 316 8851ft 108kts
07-Oct-18 08:19 35.100290 -118.997137 348 8244ft 114kts
07-Oct-18 08:20 35.131773 -118.998765 350 7662ft 117kts
07-Oct-18 08:21 35.163927 -119.003704 335 7067ft 116kts
07-Oct-18 08:22 35.193688 -119.018861 329 6474ft 118kts
07-Oct-18 08:23 35.223612 -119.035871 329 5875ft 120kts
07-Oct-18 08:24 35.253987 -119.053307 329 5278ft 122kts
07-Oct-18 08:25 35.283682 -119.070352 328 5025ft 108kts
07-Oct-18 08:26 35.310273 -119.085700 328 4993ft 105kts
07-Oct-18 08:27 35.336509 -119.100829 328 4990ft 104kts
07-Oct-18 08:28 35.363455 -119.116457 328 4992ft 118kts
07-Oct-18 08:29 35.388758 -119.131036 329 4991ft 122kts
07-Oct-18 08:30 35.424860 -119.151857 329 4987ft 123kts
07-Oct-18 08:31 35.455668 -119.169627 329 4982ft 118kts
07-Oct-18 08:32 35.483280 -119.185535 328 4975ft 107kts
07-Oct-18 08:33 35.505590 -119.198460 328 4972ft 106kts
07-Oct-18 08:34 35.532155 -119.213851 329 4968ft 106kts
07-Oct-18 08:35 35.562956 -119.231704 329 4963ft 106kts
07-Oct-18 08:36 35.586459 -119.239922 19 4802ft 123kts
07-Oct-18 08:37 35.575538 -119.205160 161 4083ft 124kts
07-Oct-18 08:38 35.550052 -119.191234 152 3564ft 116kts
07-Oct-18 08:39 35.526569 -119.166293 139 2689ft 108kts
07-Oct-18 08:40 35.507079 -119.143059 138 2327ft 96kts
07-Oct-18 08:41 35.486513 -119.118588 138 1660ft 108kts
07-Oct-18 08:42 35.468321 -119.097466 141 1211ft 79kts
07-Oct-18 08:43 35.453679 -119.079907 139 727ft 75kts
07-Oct-18 08:44 35.442114 -119.066223 132 497ft 27kts

Navigation Log

Ident Type
Flight plan parsing failed, navigation log unavailable